createdAt,value
2022-11-27T00:01:21.251Z,6.40
2022-11-27T00:03:48.555Z,7.28
2022-11-27T00:06:17.920Z,9.48
2022-11-27T00:08:45.380Z,6.20
2022-11-27T00:11:20.440Z,5.03
2022-11-27T00:13:47.515Z,6.55
2022-11-27T00:16:14.966Z,11.30
2022-11-27T00:18:42.826Z,6.63
2022-11-27T00:21:13.398Z,5.28
2022-11-27T00:23:40.248Z,4.72
2022-11-27T00:26:07.697Z,4.65
2022-11-27T00:28:35.521Z,3.92
2022-11-27T00:31:08.854Z,7.85
2022-11-27T00:33:35.679Z,11.90
2022-11-27T00:36:06.981Z,6.28
2022-11-27T00:38:38.481Z,5.97
2022-11-27T00:41:19.950Z,8.95
2022-11-27T00:43:46.973Z,3.88
2022-11-27T00:46:14.820Z,5.03
2022-11-27T00:48:42.438Z,7.13
2022-11-27T00:51:12.724Z,5.93
2022-11-27T00:53:39.790Z,5.15
2022-11-27T00:56:07.232Z,5.57
2022-11-27T00:58:34.258Z,5.65
2022-11-27T01:01:06.878Z,4.65
2022-11-27T01:03:34.217Z,5.28
2022-11-27T01:06:07.435Z,5.72
2022-11-27T01:08:34.839Z,5.97
2022-11-27T01:11:01.920Z,4.45
2022-11-27T01:13:31.608Z,6.05
2022-11-27T01:16:25.476Z,4.60
2022-11-27T01:18:54.918Z,4.30
2022-11-27T01:21:21.800Z,6.55
2022-11-27T01:23:49.428Z,5.65
2022-11-27T01:26:17.794Z,4.60
2022-11-27T01:28:44.617Z,7.70
2022-11-27T01:31:17.594Z,7.25
2022-11-27T01:33:45.036Z,5.00
2022-11-27T01:36:13.517Z,6.40
2022-11-27T01:38:40.631Z,6.35
2022-11-27T01:41:18.993Z,7.78
2022-11-27T01:43:59.809Z,4.32
2022-11-27T01:46:38.356Z,4.05
2022-11-27T01:49:11.072Z,6.55
2022-11-27T01:51:52.352Z,4.72
2022-11-27T01:54:20.611Z,5.95
2022-11-27T01:56:51.801Z,4.70
2022-11-27T01:59:19.428Z,6.30
2022-11-27T02:01:46.086Z,11.23
2022-11-27T02:04:13.006Z,6.25
2022-11-27T02:06:39.825Z,5.53
2022-11-27T02:09:06.812Z,8.48
2022-11-27T02:11:41.155Z,3.85
2022-11-27T02:14:22.948Z,6.07
2022-11-27T02:17:20.235Z,8.07
2022-11-27T02:20:06.204Z,3.30
2022-11-27T02:23:03.924Z,9.95
2022-11-27T02:25:36.544Z,6.18
2022-11-27T02:28:37.119Z,9.57
2022-11-27T02:31:25.645Z,8.50
2022-11-27T02:33:56.020Z,5.25
2022-11-27T02:36:29.839Z,8.65
2022-11-27T02:39:04.764Z,6.60
2022-11-27T02:41:39.404Z,6.35
2022-11-27T02:44:10.028Z,9.07
2022-11-27T02:46:38.069Z,5.15
2022-11-27T02:49:12.871Z,9.43
2022-11-27T02:51:53.896Z,6.28
2022-11-27T02:54:26.263Z,6.50
2022-11-27T02:56:54.841Z,8.70
2022-11-27T02:59:23.388Z,6.53
2022-11-27T03:01:57.329Z,8.25
2022-11-27T03:04:32.347Z,5.85
2022-11-27T03:07:05.604Z,6.38
2022-11-27T03:09:53.173Z,6.40
2022-11-27T03:12:20.208Z,7.13
2022-11-27T03:14:48.667Z,5.70
2022-11-27T03:17:21.155Z,6.95
2022-11-27T03:20:00.906Z,7.10
2022-11-27T03:22:28.345Z,5.18
2022-11-27T03:24:55.280Z,6.00
2022-11-27T03:27:27.898Z,8.57
2022-11-27T03:30:00.075Z,7.07
2022-11-27T03:32:28.648Z,5.90
2022-11-27T03:34:56.151Z,6.57
2022-11-27T03:37:23.667Z,5.72
2022-11-27T03:39:51.262Z,6.28
2022-11-27T03:42:56.581Z,9.57
2022-11-27T03:45:38.438Z,7.47
2022-11-27T03:48:29.977Z,7.97
2022-11-27T03:51:21.218Z,5.45
2022-11-27T03:54:26.396Z,9.35
2022-11-27T03:56:58.388Z,8.57
2022-11-27T03:59:32.850Z,11.02
2022-11-27T04:01:59.657Z,12.48
2022-11-27T04:04:26.241Z,7.70
2022-11-27T04:06:52.836Z,11.75
2022-11-27T04:09:19.975Z,9.55
2022-11-27T04:11:46.516Z,6.32
2022-11-27T04:14:13.065Z,11.65
2022-11-27T04:16:39.588Z,6.78
2022-11-27T04:19:06.415Z,6.63
2022-11-27T04:21:33.001Z,8.40
2022-11-27T04:23:59.507Z,7.90
2022-11-27T04:26:26.063Z,8.40
2022-11-27T04:28:52.616Z,5.88
2022-11-27T04:31:19.147Z,7.50
2022-11-27T04:33:45.699Z,8.02
2022-11-27T04:36:12.226Z,7.32
2022-11-27T04:38:38.772Z,4.53
2022-11-27T04:41:05.510Z,6.40
2022-11-27T04:43:32.063Z,5.80
2022-11-27T04:45:58.642Z,11.55
2022-11-27T04:48:25.199Z,7.18
2022-11-27T04:50:51.685Z,5.80
2022-11-27T04:53:18.342Z,5.80
2022-11-27T04:55:44.840Z,5.43
2022-11-27T04:58:11.396Z,7.53
2022-11-27T05:00:38.166Z,5.15
2022-11-27T05:03:04.814Z,8.65
2022-11-27T05:05:31.411Z,7.07
2022-11-27T05:07:58.238Z,11.27
2022-11-27T05:10:24.867Z,9.38
2022-11-27T05:12:51.457Z,11.18
2022-11-27T05:15:18.092Z,7.68
2022-11-27T05:17:44.585Z,6.97
2022-11-27T05:20:11.469Z,10.18
2022-11-27T05:22:38.043Z,8.35
2022-11-27T05:25:04.763Z,7.57
2022-11-27T05:27:31.612Z,9.45
2022-11-27T05:29:58.145Z,8.32
2022-11-27T05:32:25.092Z,6.90
2022-11-27T05:34:51.920Z,5.47
2022-11-27T05:37:19.885Z,8.40
2022-11-27T05:39:46.799Z,7.85
2022-11-27T05:42:13.392Z,8.52
2022-11-27T05:44:40.189Z,8.52
2022-11-27T05:47:07.104Z,6.20
2022-11-27T05:49:33.891Z,11.20
2022-11-27T05:52:00.359Z,7.03
2022-11-27T05:54:27.028Z,6.80
2022-11-27T05:56:53.509Z,6.38
2022-11-27T05:59:20.114Z,6.10
2022-11-27T06:01:46.744Z,9.05
2022-11-27T06:04:13.262Z,5.80
2022-11-27T06:06:39.884Z,6.22
2022-11-27T06:09:12.248Z,8.82
2022-11-27T06:11:39.547Z,8.20
2022-11-27T06:14:08.747Z,9.45
2022-11-27T06:19:01.708Z,10.75
2022-11-27T06:21:28.285Z,5.57
2022-11-27T06:23:56.555Z,7.13
2022-11-27T06:26:26.554Z,9.33
2022-11-27T06:28:53.885Z,10.07
2022-11-27T06:31:23.186Z,6.70
2022-11-27T06:33:51.564Z,9.50
2022-11-27T06:36:19.262Z,7.13
2022-11-27T06:38:46.135Z,3.15
2022-11-27T06:41:16.237Z,3.53
2022-11-27T06:43:42.943Z,2.95
2022-11-27T06:46:13.798Z,5.50
2022-11-27T06:48:40.623Z,5.07
2022-11-27T06:51:07.964Z,5.10
2022-11-27T06:53:37.507Z,3.88
2022-11-27T06:56:06.137Z,4.85
2022-11-27T06:58:32.721Z,3.55
2022-11-27T07:01:00.613Z,5.40
2022-11-27T07:03:27.510Z,7.68
2022-11-27T07:05:54.327Z,5.93
2022-11-27T07:08:22.369Z,8.43
2022-11-27T07:10:48.925Z,7.40
2022-11-27T07:13:15.511Z,3.25
2022-11-27T07:15:42.467Z,5.20
2022-11-27T07:18:09.188Z,5.30
2022-11-27T07:20:35.722Z,6.10
2022-11-27T07:23:02.234Z,7.00
2022-11-27T07:25:28.877Z,6.45
2022-11-27T07:37:01.733Z,8.75
2022-11-27T07:39:54.076Z,3.67
2022-11-27T07:45:01.553Z,9.43
2022-11-27T07:47:29.933Z,5.43
2022-11-27T07:49:58.520Z,6.57
2022-11-27T07:52:25.130Z,6.63
2022-11-27T07:54:51.689Z,5.60
2022-11-27T07:57:18.235Z,4.57
2022-11-27T07:59:47.501Z,5.97
2022-11-27T08:02:14.863Z,16.58
2022-11-27T08:04:41.720Z,8.60
2022-11-27T08:07:08.578Z,5.78
2022-11-27T08:09:35.224Z,6.20
2022-11-27T08:12:01.815Z,8.68
2022-11-27T08:14:28.393Z,6.95
2022-11-27T08:16:55.004Z,5.38
2022-11-27T08:19:21.962Z,11.65
2022-11-27T08:21:48.476Z,5.70
2022-11-27T08:24:15.030Z,3.72
2022-11-27T08:26:41.736Z,7.43
2022-11-27T08:29:11.753Z,4.82
2022-11-27T08:31:38.938Z,5.63
2022-11-27T08:34:05.594Z,5.63
2022-11-27T08:36:32.177Z,5.63
2022-11-27T08:38:58.792Z,5.68
2022-11-27T08:41:25.367Z,6.22
2022-11-27T08:43:51.985Z,8.68
2022-11-27T08:46:18.699Z,8.68
2022-11-27T08:48:45.280Z,5.07
2022-11-27T08:51:13.724Z,6.93
2022-11-27T08:53:40.760Z,8.20
2022-11-27T08:56:10.191Z,9.82
2022-11-27T08:58:36.834Z,5.35
2022-11-27T09:01:17.630Z,4.45
2022-11-27T09:03:44.833Z,6.22
2022-11-27T09:06:14.337Z,5.93
2022-11-27T09:08:42.580Z,8.77
2022-11-27T09:11:10.734Z,5.18
2022-11-27T09:13:37.458Z,4.68
2022-11-27T09:16:05.639Z,7.97
2022-11-27T09:18:32.275Z,12.23
2022-11-27T09:21:01.714Z,7.22
2022-11-27T09:23:29.012Z,3.97
2022-11-27T09:26:02.322Z,7.28
2022-11-27T09:28:31.612Z,6.93
2022-11-27T09:31:00.966Z,7.35
2022-11-27T09:33:29.834Z,6.38
2022-11-27T09:35:56.710Z,6.20
2022-11-27T09:38:26.293Z,5.72
2022-11-27T09:41:03.131Z,6.28
2022-11-27T09:43:36.729Z,11.05
2022-11-27T09:46:09.887Z,7.72
2022-11-27T09:48:47.101Z,7.13
2022-11-27T09:51:34.100Z,8.93
2022-11-27T09:54:12.855Z,9.48
2022-11-27T09:56:42.920Z,5.88
2022-11-27T09:59:16.528Z,5.50
2022-11-27T10:01:47.697Z,7.30
2022-11-27T10:04:20.193Z,5.88
2022-11-27T10:07:09.114Z,9.07
2022-11-27T10:10:04.478Z,7.60
2022-11-27T10:12:36.184Z,4.65
2022-11-27T10:15:14.036Z,5.30
2022-11-27T10:17:49.028Z,6.00
2022-11-27T10:20:23.564Z,5.35
2022-11-27T10:23:00.162Z,5.18
2022-11-27T10:25:33.038Z,7.10
2022-11-27T10:28:06.139Z,4.55
2022-11-27T10:30:43.269Z,5.43
2022-11-27T10:33:19.535Z,7.63
2022-11-27T10:35:49.261Z,4.55
2022-11-27T10:38:22.394Z,6.55
2022-11-27T10:41:07.841Z,4.13
2022-11-27T10:43:36.642Z,4.13
2022-11-27T10:46:13.946Z,5.90
2022-11-27T10:48:40.734Z,5.70
2022-11-27T10:51:17.578Z,3.38
2022-11-27T10:53:47.211Z,3.35
2022-11-27T10:56:15.178Z,4.68
2022-11-27T10:59:07.636Z,4.20
2022-11-27T11:01:49.365Z,2.90
2022-11-27T11:04:54.540Z,2.95
2022-11-27T11:07:29.490Z,2.55
2022-11-27T11:09:56.540Z,3.10
2022-11-27T11:12:24.032Z,4.07
2022-11-27T11:15:00.652Z,3.00
2022-11-27T11:17:34.893Z,3.90
2022-11-27T11:20:17.920Z,3.83
2022-11-27T11:22:47.103Z,3.45
2022-11-27T11:25:18.303Z,2.50
2022-11-27T11:27:46.026Z,4.50
2022-11-27T11:30:21.129Z,2.67
2022-11-27T11:32:49.351Z,3.08
2022-11-27T11:35:37.137Z,2.40
2022-11-27T11:38:06.135Z,2.90
2022-11-27T11:40:37.513Z,3.13
2022-11-27T11:43:26.984Z,4.32
2022-11-27T11:45:53.737Z,4.35
2022-11-27T11:48:27.703Z,5.00
2022-11-27T11:51:01.404Z,3.17
2022-11-27T11:53:45.579Z,2.33
2022-11-27T11:56:41.472Z,3.38
2022-11-27T11:59:34.331Z,2.33
2022-11-27T12:02:25.887Z,2.97
2022-11-27T12:05:14.087Z,2.95
2022-11-27T12:08:25.632Z,3.38
2022-11-27T12:11:01.091Z,2.03
2022-11-27T12:13:45.022Z,3.50
2022-11-27T12:16:14.661Z,3.30
2022-11-27T12:19:05.786Z,4.82
2022-11-27T12:21:40.056Z,3.65
2022-11-27T12:24:40.861Z,6.45
2022-11-27T12:27:12.673Z,3.28
2022-11-27T12:30:11.340Z,3.38
2022-11-27T12:33:09.779Z,4.00
2022-11-27T12:35:44.589Z,3.75
2022-11-27T12:38:30.240Z,5.38
2022-11-27T12:41:26.384Z,4.82
2022-11-27T12:44:00.113Z,3.78
2022-11-27T12:46:51.904Z,5.07
2022-11-27T12:49:32.002Z,4.03
2022-11-27T12:52:10.219Z,5.88
2022-11-27T12:54:48.666Z,3.78
2022-11-27T12:57:20.850Z,3.42
2022-11-27T12:59:53.550Z,3.60
2022-11-27T13:03:09.167Z,2.88
2022-11-27T13:06:05.632Z,5.70
2022-11-27T13:08:52.433Z,4.25
2022-11-27T13:11:23.683Z,3.88
2022-11-27T13:13:57.580Z,8.82
2022-11-27T13:16:43.858Z,4.13
2022-11-27T13:19:29.159Z,3.67
2022-11-27T13:21:57.724Z,6.78
2022-11-27T13:24:27.072Z,3.63
2022-11-27T13:27:08.581Z,7.50
2022-11-27T13:29:46.367Z,2.92
2022-11-27T13:32:32.951Z,3.35
2022-11-27T13:35:03.692Z,2.88
2022-11-27T13:37:32.415Z,3.65
2022-11-27T13:40:07.939Z,3.67
2022-11-27T13:42:36.775Z,3.45
2022-11-27T13:47:41.737Z,4.70
2022-11-27T13:50:18.947Z,3.65
2022-11-27T13:52:54.737Z,4.53
2022-11-27T13:55:28.173Z,3.92
2022-11-27T13:57:56.832Z,3.80
2022-11-27T14:00:36.848Z,3.33
2022-11-27T14:03:04.509Z,4.30
2022-11-27T14:05:43.264Z,3.83
2022-11-27T14:10:51.358Z,5.20
2022-11-27T14:13:20.616Z,3.55
2022-11-27T14:16:05.056Z,4.47
2022-11-27T14:18:31.893Z,5.97
2022-11-27T14:21:04.299Z,5.10
2022-11-27T14:23:34.251Z,4.40
2022-11-27T14:26:13.420Z,4.68
2022-11-27T14:28:45.158Z,5.82
2022-11-27T14:31:43.296Z,3.20
2022-11-27T14:34:34.359Z,2.72
2022-11-27T14:37:01.584Z,4.43
2022-11-27T14:39:37.598Z,5.78
2022-11-27T14:42:18.794Z,6.20
2022-11-27T14:44:45.334Z,4.22
2022-11-27T14:47:20.156Z,5.72
2022-11-27T14:49:46.822Z,7.22
2022-11-27T14:52:16.556Z,6.80
2022-11-27T14:54:44.778Z,6.05
2022-11-27T14:57:20.143Z,7.00
2022-11-27T14:59:46.649Z,5.80
2022-11-27T15:02:13.178Z,7.28
2022-11-27T15:04:42.557Z,7.40
2022-11-27T15:07:22.907Z,5.50
2022-11-27T15:09:52.570Z,8.05
2022-11-27T15:12:34.142Z,8.88
2022-11-27T15:15:28.927Z,7.95
2022-11-27T15:17:59.006Z,8.32
2022-11-27T15:20:35.075Z,8.15
2022-11-27T15:23:02.521Z,8.55
2022-11-27T15:25:33.045Z,7.80
2022-11-27T15:27:59.721Z,7.60
2022-11-27T15:30:26.421Z,9.88
2022-11-27T15:32:55.377Z,10.30
2022-11-27T15:37:52.448Z,9.18
2022-11-27T15:40:31.059Z,12.40
2022-11-27T15:42:57.773Z,10.18
2022-11-27T15:45:29.285Z,10.00
2022-11-27T15:48:00.795Z,12.55
2022-11-27T15:50:29.407Z,8.65
2022-11-27T15:52:56.693Z,8.93
2022-11-27T15:55:23.750Z,8.50
2022-11-27T15:57:50.310Z,9.88
2022-11-27T16:00:17.523Z,10.38
2022-11-27T16:02:44.311Z,11.18
2022-11-27T16:05:11.057Z,7.32
2022-11-27T16:07:37.749Z,13.00
2022-11-27T16:10:05.290Z,12.27
2022-11-27T16:12:32.132Z,14.50
2022-11-27T16:14:58.752Z,14.35
2022-11-27T16:17:25.263Z,16.35
2022-11-27T16:19:51.848Z,12.35
2022-11-27T16:22:19.059Z,16.70
2022-11-27T16:24:45.870Z,17.42
2022-11-27T16:27:12.550Z,14.73
2022-11-27T16:29:39.331Z,20.25
2022-11-27T16:32:07.396Z,15.98
2022-11-27T16:34:34.077Z,15.50
2022-11-27T16:37:00.884Z,16.33
2022-11-27T16:39:28.503Z,10.18
2022-11-27T16:41:55.168Z,13.45
2022-11-27T16:44:21.681Z,20.13
2022-11-27T16:46:48.500Z,22.98
2022-11-27T16:49:15.001Z,15.95
2022-11-27T16:51:42.007Z,19.75
2022-11-27T16:54:11.856Z,17.63
2022-11-27T16:56:38.690Z,14.80
2022-11-27T16:59:13.549Z,14.60
2022-11-27T17:01:41.689Z,13.88
2022-11-27T17:04:14.217Z,14.25
2022-11-27T17:06:40.772Z,22.13
2022-11-27T17:09:08.510Z,16.55
2022-11-27T17:11:37.375Z,16.17
2022-11-27T17:14:06.892Z,16.05
2022-11-27T17:16:35.413Z,16.88
2022-11-27T17:19:02.386Z,14.00
2022-11-27T17:21:31.293Z,14.93
2022-11-27T17:24:02.814Z,15.70
2022-11-27T17:26:30.927Z,20.70
2022-11-27T17:28:57.530Z,18.15
2022-11-27T17:31:26.913Z,24.08
2022-11-27T17:33:57.259Z,17.25
2022-11-27T17:36:30.429Z,18.95
2022-11-27T17:39:04.695Z,18.60
2022-11-27T17:41:31.324Z,16.42
2022-11-27T17:43:57.880Z,15.18
2022-11-27T17:46:27.177Z,19.02
2022-11-27T17:48:54.577Z,15.90
2022-11-27T17:51:21.652Z,11.60
2022-11-27T17:53:48.407Z,9.88
2022-11-27T17:56:17.983Z,19.42
2022-11-27T17:58:45.089Z,24.48
2022-11-27T18:01:18.492Z,17.27
2022-11-27T18:03:46.842Z,16.58
2022-11-27T18:06:15.683Z,20.03
2022-11-27T18:08:42.453Z,18.98
2022-11-27T18:11:12.698Z,29.25
2022-11-27T18:13:39.732Z,21.38
2022-11-27T18:16:09.180Z,29.58
2022-11-27T18:18:36.356Z,25.83
2022-11-27T18:21:18.038Z,27.67
2022-11-27T18:24:14.475Z,21.88
2022-11-27T18:26:52.581Z,22.70
2022-11-27T18:29:19.118Z,23.73
2022-11-27T18:31:46.799Z,23.42
2022-11-27T18:34:13.714Z,15.82
2022-11-27T18:36:40.266Z,14.02
2022-11-27T18:39:06.838Z,16.50
2022-11-27T18:41:33.487Z,14.10
2022-11-27T18:44:00.266Z,17.70
2022-11-27T18:46:26.895Z,13.40
2022-11-27T18:48:53.559Z,15.07
2022-11-27T18:51:23.005Z,15.35
2022-11-27T18:53:50.927Z,16.13
2022-11-27T18:56:24.584Z,17.02
2022-11-27T18:58:51.664Z,19.10
2022-11-27T19:01:21.884Z,19.95
2022-11-27T19:03:48.877Z,20.10
2022-11-27T19:06:18.078Z,19.17
2022-11-27T19:11:14.734Z,24.00
2022-11-27T19:13:42.275Z,23.42
2022-11-27T19:16:13.180Z,15.80
2022-11-27T19:18:40.508Z,21.38
2022-11-27T19:21:09.285Z,20.58
2022-11-27T19:23:39.412Z,15.57
2022-11-27T19:26:14.858Z,12.73
2022-11-27T19:28:41.808Z,15.50
2022-11-27T19:31:10.707Z,12.23
2022-11-27T19:33:38.269Z,17.10
2022-11-27T19:36:08.683Z,19.55
2022-11-27T19:38:35.821Z,15.85
2022-11-27T19:41:04.228Z,14.52
2022-11-27T19:43:30.892Z,24.58
2022-11-27T19:45:58.029Z,22.40
2022-11-27T19:48:24.763Z,32.35
2022-11-27T19:50:52.134Z,22.25
2022-11-27T19:53:19.513Z,24.55
2022-11-27T19:55:53.573Z,29.35
2022-11-27T19:58:20.269Z,20.55
2022-11-27T20:00:47.240Z,18.70
2022-11-27T20:03:15.134Z,15.00
2022-11-27T20:05:41.724Z,17.80
2022-11-27T20:08:08.404Z,16.80
2022-11-27T20:10:35.275Z,13.30
2022-11-27T20:13:03.016Z,15.05
2022-11-27T20:15:30.099Z,21.35
2022-11-27T20:17:56.948Z,14.90
2022-11-27T20:20:23.604Z,9.32
2022-11-27T20:22:50.440Z,13.15
2022-11-27T20:25:19.859Z,18.27
2022-11-27T20:27:47.084Z,16.65
2022-11-27T20:30:13.877Z,39.90
2022-11-27T20:32:40.481Z,21.50
2022-11-27T20:35:07.480Z,19.00
2022-11-27T20:37:34.880Z,13.50
2022-11-27T20:40:01.682Z,15.82
2022-11-27T20:42:28.289Z,18.08
2022-11-27T20:44:54.841Z,21.02
2022-11-27T20:47:21.443Z,16.80
2022-11-27T20:49:47.977Z,16.83
2022-11-27T20:52:14.905Z,17.27
2022-11-27T20:54:41.470Z,19.95
2022-11-27T20:57:13.939Z,23.90
2022-11-27T20:59:41.908Z,17.33
2022-11-27T21:02:12.187Z,19.30
2022-11-27T21:04:38.796Z,16.33
2022-11-27T21:07:05.836Z,13.88
2022-11-27T21:09:32.701Z,13.27
2022-11-27T21:11:59.767Z,13.15
2022-11-27T21:14:26.765Z,15.13
2022-11-27T21:16:54.297Z,18.15
2022-11-27T21:19:24.462Z,15.80
2022-11-27T21:21:52.599Z,16.40
2022-11-27T21:24:21.100Z,20.00
2022-11-27T21:26:48.048Z,20.67
2022-11-27T21:29:15.697Z,20.70
2022-11-27T21:31:46.862Z,17.75
2022-11-27T21:34:14.143Z,15.82
2022-11-27T21:36:41.001Z,15.65
2022-11-27T21:39:09.591Z,14.32
2022-11-27T21:41:36.805Z,10.63
2022-11-27T21:44:05.041Z,14.82
2022-11-27T21:46:32.107Z,11.47
2022-11-27T21:49:00.843Z,13.07
2022-11-27T21:51:28.580Z,18.77
2022-11-27T21:53:56.188Z,21.15
2022-11-27T21:56:26.078Z,24.90
2022-11-27T21:58:52.742Z,13.70
2022-11-27T22:01:22.498Z,11.90
2022-11-27T22:03:51.456Z,11.80
2022-11-27T22:06:18.717Z,12.85
2022-11-27T22:08:47.949Z,14.65
2022-11-27T22:13:43.296Z,9.67
2022-11-27T22:16:15.655Z,8.43
2022-11-27T22:18:42.737Z,11.23
2022-11-27T22:21:11.036Z,8.25
2022-11-27T22:23:38.441Z,9.33
2022-11-27T22:26:07.067Z,11.93
2022-11-27T22:28:35.799Z,16.50
2022-11-27T22:31:09.088Z,10.35
2022-11-27T22:33:37.080Z,9.65
2022-11-27T22:36:17.811Z,13.45
2022-11-27T22:38:49.647Z,8.73
2022-11-27T22:41:17.240Z,14.25
2022-11-27T22:43:45.042Z,12.93
2022-11-27T22:46:20.780Z,8.02
2022-11-27T22:48:47.646Z,9.95
2022-11-27T22:51:14.232Z,12.73
2022-11-27T22:53:40.942Z,10.13
2022-11-27T22:56:10.768Z,13.38
2022-11-27T22:58:41.387Z,19.80
2022-11-27T23:01:21.004Z,14.70
2022-11-27T23:03:47.870Z,9.95
2022-11-27T23:06:17.246Z,23.88
2022-11-27T23:08:45.539Z,10.63
2022-11-27T23:11:25.210Z,18.07
2022-11-27T23:13:52.990Z,17.30
2022-11-27T23:16:20.269Z,19.15
2022-11-27T23:18:47.324Z,13.20
2022-11-27T23:21:16.111Z,13.38
2022-11-27T23:23:43.347Z,12.00
2022-11-27T23:26:17.696Z,14.20
2022-11-27T23:28:45.444Z,15.27
2022-11-27T23:31:29.527Z,11.65
2022-11-27T23:33:57.365Z,10.60
2022-11-27T23:36:23.957Z,14.25
2022-11-27T23:38:50.564Z,11.88
2022-11-27T23:41:20.355Z,10.18
2022-11-27T23:43:47.227Z,11.88
2022-11-27T23:46:15.882Z,10.05
2022-11-27T23:48:43.400Z,10.90
2022-11-27T23:51:18.236Z,10.95
2022-11-27T23:53:45.260Z,14.23
2022-11-27T23:56:14.984Z,11.40
2022-11-27T23:58:46.696Z,13.02
